Time;durP1;ratioP1;P1;durP2;ratioP2;P2;SDS_P1;SDS_P2;PMS_P1;PMS_P2;Temp;Humidity;BMP_temperature;BMP_pressure;BME280_temperature;BME280_humidity;BME280_pressure;Samples;Min_cycle;Max_cycle;Signal;HPM_P1;HPM_P2
2021/04/02 02:47:36;;;;;;;9.50;7.18;;;11.40;99.90;;;;;;4838900;26;87470;-84
2021/04/02 02:50:12;;;;;;;12.95;7.85;;;11.40;99.90;;;;;;4867291;29;87020;-84
2021/04/02 02:52:40;;;;;;;12.13;7.30;;;11.40;99.90;;;;;;4870281;29;89648;-84
2021/04/02 02:55:07;;;;;;;10.15;7.35;;;11.40;99.90;;;;;;4873158;29;86000;-83
2021/04/02 02:57:35;;;;;;;11.07;7.93;;;11.40;99.90;;;;;;4878801;28;87046;-83
2021/04/02 03:00:06;;;;;;;13.63;7.40;;;11.40;99.90;;;;;;4878634;29;87219;-83
2021/04/02 03:02:32;;;;;;;10.07;7.00;;;11.40;99.90;;;;;;4877574;29;88318;-83
2021/04/02 03:04:59;;;;;;;9.90;7.00;;;11.30;99.90;;;;;;4877958;29;87127;-83
2021/04/02 03:07:27;;;;;;;14.38;6.65;;;11.30;99.90;;;;;;4879079;29;86972;-83
2021/04/02 03:09:56;;;;;;;9.05;7.40;;;11.30;99.90;;;;;;4878541;29;86889;-84
2021/04/02 03:12:23;;;;;;;9.25;6.18;;;11.30;99.90;;;;;;4861056;29;90415;-82
2021/04/02 03:14:49;;;;;;;7.13;6.40;;;11.30;99.90;;;;;;4876557;29;87505;-84
2021/04/02 03:17:16;;;;;;;9.07;5.75;;;11.40;99.90;;;;;;4878150;29;86562;-83
2021/04/02 03:19:43;;;;;;;9.32;5.57;;;11.40;99.90;;;;;;4872085;29;86051;-83
2021/04/02 03:22:10;;;;;;;9.88;5.95;;;11.30;99.90;;;;;;4870502;29;87039;-84
2021/04/02 03:24:40;;;;;;;5.88;5.25;;;11.30;99.90;;;;;;4869728;29;86896;-82
2021/04/02 03:27:07;;;;;;;8.80;5.82;;;11.30;99.90;;;;;;4869865;29;87963;-83
2021/04/02 03:29:34;;;;;;;6.03;4.72;;;11.30;99.90;;;;;;4870398;29;86559;-82
2021/04/02 03:32:09;;;;;;;8.32;5.68;;;11.30;99.90;;;;;;4870349;28;87951;-83
2021/04/02 03:34:37;;;;;;;9.57;5.18;;;11.30;99.90;;;;;;4870121;29;87008;-83
2021/04/02 03:37:07;;;;;;;8.30;4.70;;;11.30;99.90;;;;;;4870803;29;86991;-83
2021/04/02 03:39:33;;;;;;;6.95;5.53;;;11.30;99.90;;;;;;4870590;29;87299;-84
2021/04/02 03:42:02;;;;;;;8.10;6.15;;;11.30;99.90;;;;;;4870440;29;86959;-83
2021/04/02 03:44:33;;;;;;;7.55;5.10;;;11.30;99.90;;;;;;4874950;29;86237;-83
2021/04/02 03:47:02;;;;;;;8.43;4.63;;;11.20;99.90;;;;;;4884026;29;87074;-83
2021/04/02 03:49:32;;;;;;;9.15;5.32;;;11.10;99.90;;;;;;4885183;29;87247;-83
2021/04/02 03:52:04;;;;;;;8.45;4.65;;;11.10;99.90;;;;;;4884281;29;87574;-83
2021/04/02 03:54:32;;;;;;;6.25;4.93;;;11.00;99.90;;;;;;4870868;29;86643;-84
2021/04/02 03:57:00;;;;;;;7.45;5.35;;;11.00;99.90;;;;;;4875413;29;86869;-83
2021/04/02 03:59:29;;;;;;;7.97;5.75;;;10.90;99.90;;;;;;4884501;29;86407;-82
2021/04/02 04:01:55;;;;;;;7.85;5.53;;;10.90;99.90;;;;;;4880615;28;89027;-83
2021/04/02 04:04:26;;;;;;;8.70;5.60;;;10.80;99.90;;;;;;4875147;28;88209;-83
2021/04/02 04:06:58;;;;;;;7.80;5.70;;;10.80;99.90;;;;;;4874203;29;86919;-83
2021/04/02 04:09:25;;;;;;;8.40;6.18;;;10.80;99.90;;;;;;4873773;29;86120;-83
2021/04/02 04:11:52;;;;;;;13.15;6.53;;;10.80;99.90;;;;;;4873271;29;86995;-83
2021/04/02 04:14:20;;;;;;;7.60;6.07;;;10.80;99.90;;;;;;4873271;29;87041;-83
2021/04/02 04:16:47;;;;;;;7.57;6.85;;;10.80;99.90;;;;;;4872695;29;87851;-83
2021/04/02 04:19:16;;;;;;;11.32;7.05;;;10.80;99.90;;;;;;4872155;29;88650;-84
2021/04/02 04:21:45;;;;;;;10.93;6.63;;;10.80;99.90;;;;;;4872650;29;86887;-84
2021/04/02 04:24:20;;;;;;;10.88;6.78;;;10.80;99.90;;;;;;4872506;29;86708;-84
2021/04/02 04:26:48;;;;;;;13.52;7.22;;;10.80;99.90;;;;;;4861848;29;86925;-84
2021/04/02 04:29:33;;;;;;;8.98;6.30;;;10.80;99.90;;;;;;4872152;28;87120;-83
2021/04/02 04:32:00;;;;;;;8.60;6.75;;;10.80;99.90;;;;;;4872760;29;87407;-83
2021/04/02 04:34:27;;;;;;;9.10;6.10;;;10.80;99.90;;;;;;4873165;29;86073;-83
2021/04/02 04:36:55;;;;;;;7.30;6.25;;;10.80;99.90;;;;;;4855031;29;87138;-83
2021/04/02 04:39:22;;;;;;;9.02;7.30;;;10.70;99.90;;;;;;4869710;29;87472;-83
2021/04/02 04:41:51;;;;;;;8.30;6.63;;;10.70;99.90;;;;;;4873169;29;87482;-83
2021/04/02 04:44:20;;;;;;;8.77;7.07;;;10.70;99.90;;;;;;4875539;29;87090;-84
2021/04/02 04:46:47;;;;;;;14.80;8.90;;;10.60;99.90;;;;;;4872175;29;86627;-83
2021/04/02 04:49:13;;;;;;;14.25;10.20;;;10.60;99.90;;;;;;4857686;29;88944;-83
2021/04/02 04:51:41;;;;;;;13.02;9.45;;;10.60;99.90;;;;;;4871729;29;87358;-83
2021/04/02 04:54:09;;;;;;;12.13;8.10;;;10.60;99.90;;;;;;4872388;29;86735;-83
2021/04/02 04:56:38;;;;;;;16.00;8.57;;;10.60;99.90;;;;;;4872999;29;86692;-83
2021/04/02 04:59:06;;;;;;;15.88;9.73;;;10.60;99.90;;;;;;4872353;29;86885;-83
2021/04/02 05:01:39;;;;;;;11.63;7.72;;;10.50;99.90;;;;;;4872071;29;86890;-84
2021/04/02 05:04:06;;;;;;;12.15;8.27;;;10.40;99.90;;;;;;4871787;29;86811;-83
2021/04/02 05:06:33;;;;;;;9.75;8.13;;;10.40;99.90;;;;;;4872469;29;88289;-84
2021/04/02 05:09:01;;;;;;;11.02;7.63;;;10.30;99.90;;;;;;4876294;28;87524;-85
2021/04/02 05:11:27;;;;;;;11.30;8.00;;;10.30;99.90;;;;;;4874717;29;87348;-85
2021/04/02 05:13:55;;;;;;;8.88;7.38;;;10.40;99.90;;;;;;4870363;29;87587;-84
2021/04/02 05:16:22;;;;;;;9.88;8.50;;;10.40;99.90;;;;;;4871406;28;87217;-83
2021/04/02 05:18:49;;;;;;;11.55;7.35;;;10.40;99.90;;;;;;4872171;29;87409;-85
2021/04/02 05:21:15;;;;;;;8.90;7.32;;;10.40;99.90;;;;;;4870622;28;86939;-82
2021/04/02 05:23:41;;;;;;;9.80;7.07;;;10.50;99.90;;;;;;4872480;28;86222;-83
2021/04/02 05:26:12;;;;;;;8.48;7.57;;;10.50;99.90;;;;;;4869470;28;86799;-83
2021/04/02 05:28:38;;;;;;;13.15;7.72;;;10.50;99.90;;;;;;4867794;28;87654;-83
2021/04/02 05:31:04;;;;;;;8.50;7.05;;;10.60;99.90;;;;;;4844764;29;87948;-83
2021/04/02 05:33:30;;;;;;;8.90;6.43;;;10.60;99.90;;;;;;4869800;28;86780;-83
2021/04/02 05:35:56;;;;;;;10.38;6.80;;;10.60;99.90;;;;;;4871091;28;86759;-84
2021/04/02 05:38:22;;;;;;;10.20;6.55;;;10.70;99.90;;;;;;4862614;28;87174;-85
2021/04/02 05:40:47;;;;;;;9.38;6.35;;;10.70;99.90;;;;;;4874191;28;86488;-84
2021/04/02 05:43:27;;;;;;;9.00;6.38;;;10.80;99.90;;;;;;4865108;28;87398;-85
2021/04/02 05:45:53;;;;;;;10.57;6.00;;;10.90;99.90;;;;;;4870487;28;87028;-84
2021/04/02 05:48:20;;;;;;;8.45;6.70;;;10.90;99.90;;;;;;4873164;29;87271;-84
2021/04/02 05:50:47;;;;;;;9.38;6.63;;;11.20;99.90;;;;;;4861617;28;87072;-83
2021/04/02 05:53:13;;;;;;;9.93;7.03;;;11.20;99.90;;;;;;4871539;28;87115;-83
2021/04/02 05:55:39;;;;;;;9.23;8.32;;;11.20;99.90;;;;;;4870934;29;87865;-83
2021/04/02 05:58:07;;;;;;;9.93;6.95;;;11.30;99.90;;;;;;4869159;29;87002;-82
2021/04/02 06:00:38;;;;;;;10.20;5.80;;;11.50;99.90;;;;;;4870049;29;87362;-83
2021/04/02 06:03:06;;;;;;;10.43;6.57;;;11.40;99.90;;;;;;4857600;29;86727;-83
2021/04/02 06:05:32;;;;;;;6.95;5.97;;;11.50;99.90;;;;;;4867371;28;86943;-84
2021/04/02 06:07:58;;;;;;;8.43;5.90;;;11.50;99.90;;;;;;4868748;29;87273;-84
2021/04/02 06:10:25;;;;;;;7.45;6.63;;;11.70;99.90;;;;;;4867589;28;87806;-83
2021/04/02 06:12:51;;;;;;;8.50;5.82;;;11.80;99.90;;;;;;4870481;28;86186;-84
2021/04/02 06:15:18;;;;;;;12.88;6.18;;;11.90;99.90;;;;;;4873163;29;87115;-83
2021/04/02 06:18:09;;;;;;;10.00;7.47;;;12.00;99.90;;;;;;4865335;29;87885;-82
2021/04/02 06:20:44;;;;;;;10.43;8.27;;;12.10;99.90;;;;;;4868459;28;89189;-83
2021/04/02 06:23:11;;;;;;;15.80;8.38;;;12.20;99.90;;;;;;4878203;28;86906;-83
2021/04/02 06:25:39;;;;;;;9.38;6.70;;;12.30;99.90;;;;;;4871382;28;86869;-84
2021/04/02 06:28:13;;;;;;;8.70;6.47;;;12.40;99.90;;;;;;4871653;28;88097;-83
2021/04/02 06:30:41;;;;;;;8.57;6.82;;;12.40;99.90;;;;;;4867962;29;87028;-83
2021/04/02 06:33:11;;;;;;;8.88;6.85;;;13.00;99.90;;;;;;4876791;29;86981;-86
2021/04/02 06:35:42;;;;;;;9.50;5.82;;;12.90;99.90;;;;;;4858564;29;87185;-84
2021/04/02 06:38:08;;;;;;;12.45;6.97;;;13.20;99.90;;;;;;4870184;29;86328;-84
2021/04/02 06:40:34;;;;;;;9.02;6.80;;;13.60;99.90;;;;;;4871850;29;87132;-83
2021/04/02 06:43:02;;;;;;;8.32;6.53;;;14.50;99.90;;;;;;4858173;29;86405;-83
2021/04/02 06:45:28;;;;;;;7.57;6.55;;;15.70;99.90;;;;;;4861237;29;88094;-85
2021/04/02 06:48:08;;;;;;;7.70;6.90;;;17.10;96.60;;;;;;4869820;29;87273;-82
2021/04/02 06:50:34;;;;;;;10.50;7.38;;;18.40;91.80;;;;;;4872881;29;87066;-83
2021/04/02 06:53:02;;;;;;;10.23;6.90;;;19.40;89.90;;;;;;4872007;29;86908;-83
2021/04/02 06:55:28;;;;;;;12.18;8.02;;;20.50;82.00;;;;;;4854891;29;86951;-83
2021/04/02 06:57:55;;;;;;;11.45;7.30;;;21.50;76.20;;;;;;4871674;29;87671;-83
2021/04/02 07:00:26;;;;;;;9.68;6.80;;;22.10;70.80;;;;;;4871022;29;87009;-84
2021/04/02 07:02:53;;;;;;;10.05;7.38;;;22.90;65.50;;;;;;4873462;29;86063;-82
2021/04/02 07:05:21;;;;;;;10.43;6.60;;;23.40;62.80;;;;;;4872531;29;87165;-83
2021/04/02 07:08:08;;;;;;;8.88;6.85;;;24.00;60.70;;;;;;4872316;29;86994;-83
2021/04/02 07:10:35;;;;;;;11.38;7.68;;;24.40;55.80;;;;;;4857534;29;89191;-84
2021/04/02 07:13:04;;;;;;;9.77;6.47;;;24.90;54.60;;;;;;4871955;29;86856;-84
2021/04/02 07:15:33;;;;;;;8.55;7.47;;;25.20;54.60;;;;;;4872499;28;87149;-84
2021/04/02 07:18:03;;;;;;;8.45;7.07;;;25.70;50.80;;;;;;4870632;29;88184;-84
2021/04/02 07:20:29;;;;;;;11.48;7.68;;;26.30;50.30;;;;;;4871450;29;86978;-84
2021/04/02 07:22:56;;;;;;;9.93;7.95;;;26.70;48.40;;;;;;4872245;29;87084;-84
2021/04/02 07:25:23;;;;;;;13.57;9.00;;;27.30;47.50;;;;;;4868465;29;86416;-84
2021/04/02 07:27:48;;;;;;;12.07;9.45;;;28.00;45.90;;;;;;4869271;29;87024;-84
2021/04/02 07:30:15;;;;;;;15.90;11.10;;;28.50;43.70;;;;;;4868275;28;87744;-84
2021/04/02 07:32:42;;;;;;;16.98;11.30;;;28.90;42.00;;;;;;4867177;29;87161;-84
2021/04/02 07:35:16;;;;;;;14.85;10.90;;;29.30;41.50;;;;;;4850820;29;88047;-85
2021/04/02 07:37:42;;;;;;;16.95;11.35;;;29.50;39.90;;;;;;4857401;29;88638;-85
2021/04/02 07:40:10;;;;;;;16.63;12.10;;;29.60;40.30;;;;;;4867497;29;87920;-84
2021/04/02 07:42:36;;;;;;;21.40;12.80;;;29.60;39.90;;;;;;4866941;29;87061;-84
2021/04/02 07:45:06;;;;;;;15.45;10.88;;;29.50;38.90;;;;;;4866838;29;86988;-84
2021/04/02 07:47:32;;;;;;;15.68;11.70;;;30.00;38.60;;;;;;4857909;29;89356;-84
2021/04/02 07:50:02;;;;;;;14.35;11.30;;;30.50;38.10;;;;;;4867191;29;87927;-85
2021/04/02 07:52:38;;;;;;;17.85;11.60;;;31.10;36.70;;;;;;4859812;29;85875;-85
2021/04/02 07:55:15;;;;;;;15.02;12.68;;;31.20;34.90;;;;;;4868446;29;87286;-85
2021/04/02 07:58:02;;;;;;;16.88;12.95;;;31.50;34.90;;;;;;4867438;29;88705;-85
2021/04/02 08:00:32;;;;;;;16.85;12.48;;;31.50;34.30;;;;;;4867633;29;88365;-84
2021/04/02 08:03:06;;;;;;;19.02;12.75;;;31.20;34.60;;;;;;4866448;29;87099;-85
2021/04/02 08:05:32;;;;;;;20.95;14.15;;;31.90;33.90;;;;;;4871988;28;86649;-85
2021/04/02 08:07:58;;;;;;;22.77;14.20;;;31.80;33.90;;;;;;4866805;29;87212;-85
2021/04/02 08:10:24;;;;;;;19.25;12.43;;;32.30;34.40;;;;;;4866009;29;87473;-85
2021/04/02 08:12:50;;;;;;;17.05;13.20;;;32.60;33.90;;;;;;4865351;28;87481;-85
2021/04/02 08:15:17;;;;;;;17.15;13.07;;;33.10;33.70;;;;;;4866802;29;87018;-85
2021/04/02 08:17:44;;;;;;;17.05;13.57;;;33.70;32.70;;;;;;4866411;29;86499;-85
2021/04/02 08:20:18;;;;;;;16.25;12.38;;;34.10;32.30;;;;;;4866739;29;86954;-85
2021/04/02 08:22:49;;;;;;;16.15;12.07;;;34.60;31.80;;;;;;4858124;29;87804;-85
2021/04/02 08:25:16;;;;;;;15.90;12.75;;;35.20;31.60;;;;;;4865651;28;87549;-85
2021/04/02 08:27:44;;;;;;;18.30;12.50;;;35.50;31.70;;;;;;4867403;28;87491;-86
2021/04/02 08:30:13;;;;;;;17.40;13.07;;;35.90;31.30;;;;;;4865692;29;87014;-86
2021/04/02 08:32:49;;;;;;;18.35;13.68;;;36.20;30.80;;;;;;4866048;29;87022;-86
2021/04/02 08:35:15;;;;;;;20.02;12.85;;;36.40;30.00;;;;;;4865499;29;87161;-86
2021/04/02 08:37:59;;;;;;;14.75;12.25;;;36.10;30.90;;;;;;4869491;29;87612;-86
2021/04/02 08:40:25;;;;;;;16.42;12.10;;;36.70;29.60;;;;;;4858131;29;86853;-86
2021/04/02 08:42:51;;;;;;;13.70;11.10;;;;;;;;;;4868687;29;86618;-87
2021/04/02 08:45:19;;;;;;;11.73;9.85;;;37.60;29.10;;;;;;4869295;28;87130;-86
2021/04/02 08:47:47;;;;;;;11.00;9.85;;;37.70;29.30;;;;;;4868122;28;87715;-86
2021/04/02 08:50:13;;;;;;;11.35;9.02;;;37.20;30.00;;;;;;4856116;29;88145;-86
2021/04/02 08:52:39;;;;;;;12.80;9.95;;;37.70;29.70;;;;;;4868464;29;87044;-86
2021/04/02 08:55:07;;;;;;;12.10;9.63;;;38.00;29.40;;;;;;4868852;29;87043;-86
2021/04/02 08:57:34;;;;;;;11.15;10.05;;;38.50;29.00;;;;;;4869576;29;87734;-86
2021/04/02 09:00:05;;;;;;;11.25;9.73;;;39.00;28.90;;;;;;4868260;29;87166;-86
2021/04/02 09:02:32;;;;;;;9.38;8.32;;;39.10;28.40;;;;;;4866957;29;87229;-86
2021/04/02 09:05:01;;;;;;;9.68;8.68;;;39.30;28.60;;;;;;4869558;28;87125;-86
2021/04/02 09:07:27;;;;;;;9.40;8.38;;;39.60;28.60;;;;;;4880044;29;86298;-86
2021/04/02 09:09:53;;;;;;;10.35;8.50;;;39.70;28.40;;;;;;4870003;29;87102;-86
2021/04/02 09:12:20;;;;;;;9.75;8.85;;;39.60;28.50;;;;;;4880656;29;86668;-86
2021/04/02 09:14:49;;;;;;;10.05;9.15;;;39.60;28.80;;;;;;4878882;28;87325;-86
2021/04/02 09:17:25;;;;;;;10.47;9.37;;;39.80;28.30;;;;;;4876833;29;87320;-86
2021/04/02 09:19:52;;;;;;;8.95;8.10;;;39.70;28.00;;;;;;4881209;29;87088;-86
2021/04/02 09:22:22;;;;;;;9.95;8.95;;;39.70;28.40;;;;;;4879243;29;86967;-86
2021/04/02 09:24:49;;;;;;;9.93;9.00;;;39.80;28.00;;;;;;4865305;28;87041;-86
2021/04/02 09:27:17;;;;;;;10.13;9.13;;;40.10;28.00;;;;;;4866892;29;87705;-86
2021/04/02 09:29:56;;;;;;;11.75;10.48;;;40.70;27.80;;;;;;4877133;29;86983;-86
2021/04/02 09:32:22;;;;;;;10.67;9.13;;;40.70;26.90;;;;;;4869455;29;85781;-86
2021/04/02 09:34:48;;;;;;;12.48;9.70;;;40.50;27.40;;;;;;4876936;28;86980;-85
2021/04/02 09:37:14;;;;;;;10.60;9.48;;;40.90;27.10;;;;;;4873675;29;87386;-86
2021/04/02 09:39:41;;;;;;;10.57;9.48;;;41.10;27.50;;;;;;4871799;29;88032;-86
2021/04/02 09:42:13;;;;;;;9.98;8.93;;;40.80;27.30;;;;;;4873861;29;87081;-86
2021/04/02 09:44:39;;;;;;;11.63;10.52;;;40.90;27.10;;;;;;4886498;29;86763;-86
2021/04/02 09:47:11;;;;;;;11.95;10.32;;;41.10;26.80;;;;;;4878363;29;87420;-87
2021/04/02 09:49:37;;;;;;;13.05;11.20;;;41.10;26.60;;;;;;4875909;29;86880;-86
2021/04/02 09:52:05;;;;;;;13.10;11.02;;;41.30;26.70;;;;;;4868290;28;87092;-85
2021/04/02 09:54:31;;;;;;;13.85;11.57;;;41.40;26.70;;;;;;4868506;29;87554;-85
2021/04/02 09:56:59;;;;;;;13.13;11.85;;;41.40;26.70;;;;;;4869845;29;87434;-85
2021/04/02 09:59:25;;;;;;;13.63;11.38;;;41.50;26.50;;;;;;4867020;29;87683;-85
2021/04/02 10:01:51;;;;;;;11.13;10.13;;;41.30;26.20;;;;;;4865305;29;86901;-85
2021/04/02 10:04:18;;;;;;;14.13;11.20;;;41.30;27.20;;;;;;4865953;28;88159;-85
2021/04/02 10:06:44;;;;;;;13.05;11.65;;;41.50;26.40;;;;;;4866626;29;87739;-86
2021/04/02 10:09:10;;;;;;;11.52;10.20;;;41.50;26.30;;;;;;4866478;28;87393;-85
2021/04/02 10:11:38;;;;;;;12.18;10.88;;;41.50;26.10;;;;;;4868501;28;87106;-86
2021/04/02 10:14:05;;;;;;;14.55;12.20;;;41.50;26.10;;;;;;4865629;29;87398;-86
2021/04/02 10:16:31;;;;;;;13.88;11.65;;;40.90;26.20;;;;;;4864661;29;87225;-86
2021/04/02 10:18:57;;;;;;;13.63;11.00;;;40.60;26.10;;;;;;4868659;29;87296;-86
2021/04/02 10:21:24;;;;;;;11.25;10.27;;;41.00;26.00;;;;;;4869916;29;86217;-86
2021/04/02 10:23:51;;;;;;;11.25;10.25;;;41.10;25.90;;;;;;4868677;29;88565;-85
2021/04/02 10:26:18;;;;;;;12.82;11.43;;;41.60;25.80;;;;;;4868969;29;87408;-86
2021/04/02 10:28:44;;;;;;;12.98;11.70;;;42.00;25.50;;;;;;4867997;29;87893;-86
2021/04/02 10:31:11;;;;;;;13.18;11.40;;;42.10;25.40;;;;;;4860818;29;87348;-86
2021/04/02 10:33:37;;;;;;;10.75;9.68;;;42.10;25.70;;;;;;4862429;29;87025;-86
2021/04/02 10:36:04;;;;;;;12.73;11.43;;;42.40;25.60;;;;;;4866655;29;86995;-86
2021/04/02 10:38:30;;;;;;;12.63;11.43;;;42.40;25.40;;;;;;4866020;29;87465;-86
2021/04/02 10:40:56;;;;;;;11.50;10.40;;;42.60;25.40;;;;;;4867207;29;86949;-86
2021/04/02 10:43:22;;;;;;;13.23;11.48;;;42.60;25.10;;;;;;4865208;29;87084;-86
2021/04/02 10:45:48;;;;;;;12.57;11.38;;;42.40;25.40;;;;;;4867638;29;86180;-86
2021/04/02 10:48:15;;;;;;;15.10;12.15;;;42.80;25.30;;;;;;4867107;29;87050;-86
2021/04/02 10:50:43;;;;;;;14.00;12.43;;;42.80;25.30;;;;;;4856895;29;87038;-86
2021/04/02 10:53:10;;;;;;;15.38;11.45;;;43.00;25.10;;;;;;4865639;29;87594;-85
2021/04/02 10:55:35;;;;;;;14.32;12.95;;;43.30;25.20;;;;;;4856844;28;87019;-86
2021/04/02 10:58:05;;;;;;;13.52;12.23;;;43.30;25.30;;;;;;4867944;29;87301;-86
2021/04/02 11:00:31;;;;;;;14.98;13.55;;;43.30;25.30;;;;;;4859135;29;86934;-86
2021/04/02 11:02:57;;;;;;;15.57;13.60;;;43.20;25.40;;;;;;4861463;29;87017;-87
2021/04/02 11:05:23;;;;;;;17.80;15.52;;;43.70;25.30;;;;;;4864535;28;86918;-86
2021/04/02 11:07:48;;;;;;;16.73;15.05;;;44.00;25.00;;;;;;4853525;29;89662;-87
2021/04/02 11:10:15;;;;;;;17.35;15.52;;;44.10;25.00;;;;;;4862716;29;85890;-87
2021/04/02 11:12:41;;;;;;;19.80;17.70;;;44.30;25.00;;;;;;4868043;28;86839;-87
2021/04/02 11:15:12;;;;;;;18.77;16.88;;;43.80;25.20;;;;;;4866810;29;87160;-87
2021/04/02 11:17:38;;;;;;;17.88;15.98;;;43.40;24.90;;;;;;4866832;29;87959;-87
2021/04/02 11:20:04;;;;;;;18.92;16.92;;;43.50;25.10;;;;;;4862844;29;86908;-86
2021/04/02 11:22:30;;;;;;;18.02;16.23;;;43.80;25.10;;;;;;4864432;29;87370;-87
2021/04/02 11:24:56;;;;;;;18.50;16.40;;;43.60;25.30;;;;;;4865316;29;87317;-87
2021/04/02 11:27:21;;;;;;;18.17;16.30;;;43.40;25.20;;;;;;4866249;29;87271;-87
2021/04/02 11:29:47;;;;;;;23.52;17.90;;;43.60;24.90;;;;;;4851050;29;87193;-86
2021/04/02 11:32:14;;;;;;;20.05;17.95;;;43.60;25.10;;;;;;4866445;29;87933;-87
2021/04/02 11:34:42;;;;;;;22.10;19.70;;;43.80;25.10;;;;;;4866419;29;86718;-87
2021/04/02 11:37:08;;;;;;;21.38;19.17;;;43.70;25.10;;;;;;4853096;29;89649;-87
2021/04/02 11:39:34;;;;;;;22.35;19.83;;;43.80;24.80;;;;;;4855900;29;87445;-87
2021/04/02 11:42:00;;;;;;;22.58;20.27;;;43.90;24.90;;;;;;4866458;29;87745;-87
2021/04/02 11:44:26;;;;;;;23.13;19.05;;;43.40;25.30;;;;;;4866255;29;88557;-86
2021/04/02 11:46:53;;;;;;;19.60;17.60;;;43.70;25.00;;;;;;4868942;29;88011;-87
2021/04/02 11:49:19;;;;;;;19.65;17.70;;;43.60;25.00;;;;;;4858135;29;86948;-86
2021/04/02 11:51:45;;;;;;;22.98;20.25;;;43.50;24.70;;;;;;4861733;28;87103;-87
2021/04/02 11:54:11;;;;;;;19.90;17.85;;;43.30;24.70;;;;;;4865987;29;87592;-87
2021/04/02 11:56:38;;;;;;;21.85;18.95;;;43.30;25.20;;;;;;4863293;29;86882;-87
2021/04/02 11:59:04;;;;;;;22.88;18.88;;;43.20;24.50;;;;;;4866281;29;86448;-87
2021/04/02 12:01:30;;;;;;;21.55;18.60;;;42.90;24.00;;;;;;4865630;29;87169;-87
2021/04/02 12:03:56;;;;;;;21.38;17.20;;;43.00;24.30;;;;;;4864351;29;87003;-87
2021/04/02 12:06:22;;;;;;;21.85;18.70;;;42.60;24.40;;;;;;4865533;29;87893;-87
2021/04/02 12:08:47;;;;;;;22.52;17.95;;;42.70;24.30;;;;;;4867803;29;87052;-86
2021/04/02 12:11:14;;;;;;;22.52;18.35;;;42.50;24.70;;;;;;4885360;29;87218;-86
2021/04/02 12:13:41;;;;;;;23.92;20.63;;;42.70;24.30;;;;;;4866642;29;88461;-86
2021/04/02 12:16:07;;;;;;;21.83;19.55;;;42.40;24.80;;;;;;4889559;29;86558;-87
2021/04/02 12:18:33;;;;;;;23.75;19.80;;;42.40;25.00;;;;;;4890243;29;86934;-87
2021/04/02 12:20:59;;;;;;;20.90;17.75;;;41.90;25.00;;;;;;4866815;29;86904;-87
2021/04/02 12:23:25;;;;;;;24.10;16.25;;;41.80;24.70;;;;;;4862535;29;87411;-86
2021/04/02 12:25:51;;;;;;;19.83;16.52;;;41.30;24.10;;;;;;4884344;29;88021;-87
2021/04/02 12:28:17;;;;;;;23.05;17.88;;;41.20;23.70;;;;;;4878869;29;86772;-86
2021/04/02 12:30:43;;;;;;;18.05;16.08;;;40.70;24.10;;;;;;4885148;29;87223;-86
2021/04/02 12:33:08;;;;;;;20.65;16.88;;;40.10;24.60;;;;;;4871992;29;87584;-86
2021/04/02 12:35:34;;;;;;;21.88;16.15;;;40.70;24.60;;;;;;4870305;29;87093;-86
2021/04/02 12:38:00;;;;;;;22.73;16.92;;;40.50;24.80;;;;;;4871036;28;87092;-86
2021/04/02 12:40:26;;;;;;;20.15;16.42;;;40.80;24.50;;;;;;4869193;29;87286;-86
2021/04/02 12:42:53;;;;;;;20.48;16.75;;;40.70;24.50;;;;;;4870247;29;88638;-86
2021/04/02 12:45:20;;;;;;;18.77;15.82;;;40.50;24.70;;;;;;4869321;29;87406;-86
2021/04/02 12:47:46;;;;;;;20.75;16.48;;;40.00;24.90;;;;;;4866985;29;86047;-86
2021/04/02 12:50:18;;;;;;;19.55;16.52;;;39.20;25.50;;;;;;4868980;29;87063;-86
2021/04/02 12:52:45;;;;;;;20.67;18.30;;;39.60;25.50;;;;;;4868981;29;87436;-86
2021/04/02 12:55:16;;;;;;;27.25;20.20;;;39.60;25.60;;;;;;4869271;29;87895;-86
2021/04/02 12:57:42;;;;;;;19.02;16.33;;;39.80;25.80;;;;;;4869016;29;86880;-86
2021/04/02 13:00:19;;;;;;;18.05;15.90;;;39.60;25.90;;;;;;4870863;29;86978;-86
2021/04/02 13:02:45;;;;;;;19.98;16.15;;;39.30;25.70;;;;;;4868485;29;87452;-86
2021/04/02 13:05:11;;;;;;;23.83;18.02;;;39.30;25.80;;;;;;4868357;29;87042;-86
2021/04/02 13:07:37;;;;;;;21.17;16.67;;;38.90;25.70;;;;;;4867706;29;86973;-84
2021/04/02 13:10:04;;;;;;;28.38;19.48;;;38.70;26.00;;;;;;4868959;29;87048;-85
2021/04/02 13:12:30;;;;;;;21.98;17.67;;;38.60;26.10;;;;;;4863142;29;86526;-85
2021/04/02 13:14:56;;;;;;;25.88;18.88;;;38.10;26.20;;;;;;4870077;29;87296;-85
2021/04/02 13:17:22;;;;;;;21.23;16.63;;;37.90;26.50;;;;;;4870911;29;87040;-84
2021/04/02 13:19:47;;;;;;;25.55;19.75;;;37.90;26.70;;;;;;4871503;29;87996;-84
2021/04/02 13:22:13;;;;;;;20.63;16.73;;;37.90;26.20;;;;;;4870297;29;87035;-85
2021/04/02 13:24:39;;;;;;;21.40;17.33;;;37.20;26.50;;;;;;4872002;29;87178;-85
2021/04/02 13:27:06;;;;;;;21.35;16.95;;;37.20;26.70;;;;;;4853104;29;87294;-85
2021/04/02 13:29:33;;;;;;;24.25;17.42;;;37.00;26.20;;;;;;4871474;29;87152;-86
2021/04/02 13:31:59;;;;;;;22.95;18.20;;;36.10;26.90;;;;;;4870620;28;88223;-86
2021/04/02 13:34:24;;;;;;;22.00;17.77;;;35.70;27.20;;;;;;4872988;29;86982;-86
2021/04/02 13:36:50;;;;;;;24.70;18.75;;;35.60;27.50;;;;;;4859354;29;86271;-85
2021/04/02 13:39:16;;;;;;;21.08;17.63;;;35.60;27.60;;;;;;4870967;29;87169;-86
2021/04/02 13:41:42;;;;;;;21.08;16.92;;;35.40;27.80;;;;;;4872268;29;87192;-86
2021/04/02 13:44:09;;;;;;;23.90;18.17;;;35.30;27.90;;;;;;4871576;29;87992;-87
2021/04/02 13:46:35;;;;;;;21.05;17.63;;;35.10;27.90;;;;;;4869975;29;87444;-86
2021/04/02 13:49:00;;;;;;;24.55;16.35;;;35.10;27.90;;;;;;4866459;29;87055;-86
2021/04/02 13:51:26;;;;;;;22.45;18.65;;;34.80;27.90;;;;;;4868075;29;87113;-86
2021/04/02 13:53:53;;;;;;;24.67;18.30;;;34.50;28.30;;;;;;4872086;29;87052;-86
2021/04/02 13:56:18;;;;;;;24.27;19.10;;;34.70;28.80;;;;;;4866933;29;86986;-85
2021/04/02 13:58:44;;;;;;;23.55;19.10;;;34.10;28.90;;;;;;4867801;29;86682;-86
2021/04/02 14:01:10;;;;;;;23.38;17.70;;;33.60;28.90;;;;;;4867991;29;86127;-85
2021/04/02 14:03:36;;;;;;;21.88;17.02;;;33.80;28.80;;;;;;4871528;29;87056;-85
2021/04/02 14:06:02;;;;;;;23.13;16.98;;;33.70;29.10;;;;;;4871453;29;86880;-85
2021/04/02 14:08:28;;;;;;;23.58;18.88;;;33.60;29.20;;;;;;4871991;29;88140;-86
2021/04/02 14:10:54;;;;;;;24.23;17.80;;;33.60;29.50;;;;;;4860811;29;86867;-87
2021/04/02 14:13:20;;;;;;;29.83;20.13;;;33.50;29.30;;;;;;4872217;29;87002;-86
2021/04/02 14:15:45;;;;;;;25.45;19.30;;;32.90;29.60;;;;;;4875297;29;86155;-85
2021/04/02 14:18:11;;;;;;;23.88;18.63;;;32.60;30.00;;;;;;4871983;29;87067;-86
2021/04/02 14:20:44;;;;;;;26.27;17.40;;;32.60;30.20;;;;;;4871458;29;87570;-82
2021/04/02 14:23:10;;;;;;;25.50;19.55;;;32.60;30.00;;;;;;4873124;28;88065;-85
2021/04/02 14:25:36;;;;;;;23.23;17.60;;;32.60;30.10;;;;;;4861731;28;86916;-85
2021/04/02 14:28:04;;;;;;;27.95;19.25;;;32.30;30.20;;;;;;4861707;29;87431;-86
2021/04/02 14:30:34;;;;;;;23.27;18.75;;;31.70;31.30;;;;;;4860539;29;87691;-85
2021/04/02 14:33:00;;;;;;;22.90;18.42;;;31.50;31.40;;;;;;4862419;29;89601;-82
2021/04/02 14:35:29;;;;;;;22.35;18.27;;;31.10;31.90;;;;;;4866634;29;86751;-81
2021/04/02 14:38:00;;;;;;;25.20;17.67;;;30.30;33.10;;;;;;4868182;29;87229;-83
2021/04/02 14:40:26;;;;;;;21.52;17.08;;;29.50;33.80;;;;;;4869183;29;87063;-83
2021/04/02 14:42:52;;;;;;;21.85;17.30;;;29.00;34.40;;;;;;4870863;29;88593;-84
2021/04/02 14:45:18;;;;;;;21.35;15.98;;;29.00;34.70;;;;;;4871943;28;87518;-83
2021/04/02 14:47:49;;;;;;;20.38;16.23;;;28.80;34.90;;;;;;4870691;29;87151;-85
2021/04/02 14:50:18;;;;;;;21.35;16.45;;;28.70;35.00;;;;;;4871970;29;89205;-86
2021/04/02 14:52:44;;;;;;;25.67;16.23;;;28.60;35.10;;;;;;4855008;29;89610;-85
2021/04/02 14:55:10;;;;;;;22.83;15.18;;;28.70;35.10;;;;;;4872795;28;86938;-85
2021/04/02 14:57:37;;;;;;;23.73;15.65;;;28.70;35.50;;;;;;4874847;29;87576;-86
2021/04/02 15:00:08;;;;;;;22.60;16.88;;;28.10;36.10;;;;;;4875754;29;88163;-85
2021/04/02 15:02:35;;;;;;;23.58;15.55;;;27.60;36.40;;;;;;4878315;29;87099;-85
2021/04/02 15:05:03;;;;;;;24.38;16.83;;;27.00;37.00;;;;;;4879284;29;86902;-85
2021/04/02 15:07:28;;;;;;;21.60;16.13;;;26.20;38.30;;;;;;4877795;29;86704;-85
2021/04/02 15:09:54;;;;;;;22.38;15.82;;;25.30;39.10;;;;;;4877599;29;87448;-86
2021/04/02 15:12:20;;;;;;;25.13;17.38;;;24.70;39.90;;;;;;4876250;29;86262;-85
2021/04/02 15:14:45;;;;;;;26.30;18.50;;;24.20;41.50;;;;;;4877883;29;86188;-86
2021/04/02 15:17:11;;;;;;;31.52;18.13;;;23.70;42.10;;;;;;4877948;29;87001;-86
2021/04/02 15:19:37;;;;;;;25.27;17.02;;;23.20;43.10;;;;;;4854900;29;89073;-85
2021/04/02 15:22:04;;;;;;;22.38;16.65;;;22.70;43.60;;;;;;4870363;29;88069;-85